KILM/ILM METAR and TAF weather

Enter ICAO airport designator
Station Type Date Time Source
KILM METAR 2018/12/15 23:04 UTC NOAA

KILM 152304Z 22007KT 10SM FEW005 SCT016 BKN024 17/16 A2995 RMK AO2 T01670156


Station Type Date Time Source
KILM Decoded METAR 2018/12/15 23:04 UTC NOAA

WILMINGTON INT'L AIRPORT, NC, United States (KILM) 34-16N 077-54W 9M
Dec 15, 2018 - 06:04 PM EST / 2018.12.15 2304 UTC
Wind: from the SW (220 degrees) at 8 MPH (7 KT):0
Visibility: 10 mile(s):0
Sky conditions: mostly cloudy
Temperature: 62.1 F (16.7 C)
Dew Point: 60.1 F (15.6 C)
Relative Humidity: 93%
Pressure (altimeter): 29.95 in. Hg (1014 hPa)
ob: KILM 152304Z 22007KT 10SM FEW005 SCT016 BKN024 17/16 A2995 RMK AO2 T01670156
cycle: 23

Station Type Date Time Source
KILM TAF 2018/12/15 18:22 UTC NOAA

TAF KILM 151720Z 1518/1618 21008KT P6SM VCSH SCT008 BKN018 BKN040
TEMPO 1518/1522 6SM BR SCT005 BKN010
FM152300 23004KT 5SM BR SCT015 SCT050 BKN080
FM160500 26008KT P6SM SCT060 BKN100
FM161400 26015G22KT P6SM FEW020


Example: see airport list